sensor_id;sensor_type;location;lat;lon;timestamp;pressure;altitude;pressure_sealevel;temperature;humidity
27210;BME280;14721;42.668;23.386;2023-02-18T00:00:57;96073.63;;;3.69;65.49
27210;BME280;14721;42.668;23.386;2023-02-18T00:03:25;96061.63;;;3.85;65.27
27210;BME280;14721;42.668;23.386;2023-02-18T00:05:51;96066.84;;;3.87;65.02
27210;BME280;14721;42.668;23.386;2023-02-18T00:08:18;96055.56;;;3.82;65.13
27210;BME280;14721;42.668;23.386;2023-02-18T00:10:43;96057.00;;;3.90;64.89
27210;BME280;14721;42.668;23.386;2023-02-18T00:13:09;96050.06;;;3.88;64.89
27210;BME280;14721;42.668;23.386;2023-02-18T00:15:36;96051.94;;;3.84;65.03
27210;BME280;14721;42.668;23.386;2023-02-18T00:18:01;96050.75;;;3.93;64.30
27210;BME280;14721;42.668;23.386;2023-02-18T00:20:27;96027.91;;;3.90;64.73
27210;BME280;14721;42.668;23.386;2023-02-18T00:22:53;96027.38;;;3.82;64.67
27210;BME280;14721;42.668;23.386;2023-02-18T00:25:18;96028.31;;;3.80;64.88
27210;BME280;14721;42.668;23.386;2023-02-18T00:27:44;96027.13;;;3.88;65.11
27210;BME280;14721;42.668;23.386;2023-02-18T00:30:09;96019.03;;;3.93;64.81
27210;BME280;14721;42.668;23.386;2023-02-18T00:32:35;96016.25;;;3.73;65.16
27210;BME280;14721;42.668;23.386;2023-02-18T00:35:01;96013.66;;;3.71;65.53
27210;BME280;14721;42.668;23.386;2023-02-18T00:37:26;96017.09;;;3.50;65.68
27210;BME280;14721;42.668;23.386;2023-02-18T00:39:52;96015.00;;;3.35;66.65
27210;BME280;14721;42.668;23.386;2023-02-18T00:42:18;96004.53;;;3.32;66.96
27210;BME280;14721;42.668;23.386;2023-02-18T00:44:43;96011.34;;;3.15;68.04
27210;BME280;14721;42.668;23.386;2023-02-18T00:47:09;96009.72;;;3.11;68.59
27210;BME280;14721;42.668;23.386;2023-02-18T00:49:34;96002.16;;;3.00;68.43
27210;BME280;14721;42.668;23.386;2023-02-18T00:52:00;96007.88;;;3.13;68.71
27210;BME280;14721;42.668;23.386;2023-02-18T00:54:26;96012.91;;;3.20;68.18
27210;BME280;14721;42.668;23.386;2023-02-18T00:56:51;96006.34;;;3.07;68.88
27210;BME280;14721;42.668;23.386;2023-02-18T00:59:17;96011.97;;;3.21;68.65
27210;BME280;14721;42.668;23.386;2023-02-18T01:01:43;96008.59;;;3.18;68.74
27210;BME280;14721;42.668;23.386;2023-02-18T01:04:08;96005.50;;;3.05;69.44
27210;BME280;14721;42.668;23.386;2023-02-18T01:06:34;96010.16;;;3.23;69.28
27210;BME280;14721;42.668;23.386;2023-02-18T01:08:59;96014.63;;;3.21;68.86
27210;BME280;14721;42.668;23.386;2023-02-18T01:11:25;96003.91;;;3.01;69.04
27210;BME280;14721;42.668;23.386;2023-02-18T01:13:51;96004.25;;;2.91;69.79
27210;BME280;14721;42.668;23.386;2023-02-18T01:16:16;95994.19;;;2.77;69.81
27210;BME280;14721;42.668;23.386;2023-02-18T01:18:42;96014.66;;;2.95;70.15
27210;BME280;14721;42.668;23.386;2023-02-18T01:21:09;96006.09;;;2.89;69.95
27210;BME280;14721;42.668;23.386;2023-02-18T01:23:39;96002.38;;;2.94;70.18
27210;BME280;14721;42.668;23.386;2023-02-18T01:26:05;96003.69;;;3.07;69.33
27210;BME280;14721;42.668;23.386;2023-02-18T01:28:31;96008.03;;;3.08;69.55
27210;BME280;14721;42.668;23.386;2023-02-18T01:30:57;96003.09;;;3.24;69.11
27210;BME280;14721;42.668;23.386;2023-02-18T01:33:23;96005.47;;;3.07;69.73
27210;BME280;14721;42.668;23.386;2023-02-18T01:35:48;95990.00;;;3.21;69.48
27210;BME280;14721;42.668;23.386;2023-02-18T01:38:16;95992.59;;;3.22;68.80
27210;BME280;14721;42.668;23.386;2023-02-18T01:40:49;95999.47;;;3.26;68.73
27210;BME280;14721;42.668;23.386;2023-02-18T01:43:17;96005.16;;;3.40;68.32
27210;BME280;14721;42.668;23.386;2023-02-18T01:49:00;95997.56;;;3.31;68.37
27210;BME280;14721;42.668;23.386;2023-02-18T01:51:33;96017.03;;;3.27;68.48
27210;BME280;14721;42.668;23.386;2023-02-18T01:54:05;96005.81;;;2.96;68.90
27210;BME280;14721;42.668;23.386;2023-02-18T01:56:36;96020.56;;;2.77;69.61
27210;BME280;14721;42.668;23.386;2023-02-18T01:59:13;96025.69;;;2.82;69.96
27210;BME280;14721;42.668;23.386;2023-02-18T02:01:43;96016.72;;;2.60;70.74
27210;BME280;14721;42.668;23.386;2023-02-18T02:04:09;96011.94;;;2.46;71.44
27210;BME280;14721;42.668;23.386;2023-02-18T02:06:35;96010.75;;;2.55;71.88
27210;BME280;14721;42.668;23.386;2023-02-18T02:09:03;96003.19;;;2.44;72.21
27210;BME280;14721;42.668;23.386;2023-02-18T02:11:37;96010.03;;;2.24;73.00
27210;BME280;14721;42.668;23.386;2023-02-18T02:14:08;96006.66;;;2.19;73.68
27210;BME280;14721;42.668;23.386;2023-02-18T02:16:46;95992.13;;;2.33;73.48
27210;BME280;14721;42.668;23.386;2023-02-18T02:39:29;95988.03;;;2.77;70.62
27210;BME280;14721;42.668;23.386;2023-02-18T02:44:30;95965.03;;;2.80;69.88
27210;BME280;14721;42.668;23.386;2023-02-18T02:47:07;95988.91;;;3.02;69.32
27210;BME280;14721;42.668;23.386;2023-02-18T02:49:54;95978.72;;;2.91;69.48
27210;BME280;14721;42.668;23.386;2023-02-18T02:52:33;95984.53;;;3.01;69.28
27210;BME280;14721;42.668;23.386;2023-02-18T02:55:10;95988.16;;;3.23;68.50
27210;BME280;14721;42.668;23.386;2023-02-18T02:57:40;95979.72;;;3.13;68.39
27210;BME280;14721;42.668;23.386;2023-02-18T03:00:07;95983.97;;;3.17;68.36
27210;BME280;14721;42.668;23.386;2023-02-18T03:21:32;96001.72;;;2.88;69.22
27210;BME280;14721;42.668;23.386;2023-02-18T03:24:15;96005.22;;;2.88;69.42
27210;BME280;14721;42.668;23.386;2023-02-18T03:26:50;96018.81;;;2.76;69.93
27210;BME280;14721;42.668;23.386;2023-02-18T03:29:17;96036.66;;;2.70;70.38
27210;BME280;14721;42.668;23.386;2023-02-18T03:31:48;96028.25;;;2.57;70.79
27210;BME280;14721;42.668;23.386;2023-02-18T03:34:19;96030.44;;;2.45;70.88
27210;BME280;14721;42.668;23.386;2023-02-18T03:36:47;96043.97;;;2.34;71.48
27210;BME280;14721;42.668;23.386;2023-02-18T03:39:15;96041.44;;;2.31;71.68
27210;BME280;14721;42.668;23.386;2023-02-18T03:41:42;96042.16;;;2.35;71.66
27210;BME280;14721;42.668;23.386;2023-02-18T03:44:10;96036.00;;;2.36;71.81
27210;BME280;14721;42.668;23.386;2023-02-18T03:46:38;96053.69;;;2.32;71.07
27210;BME280;14721;42.668;23.386;2023-02-18T03:49:04;96056.66;;;2.22;72.03
27210;BME280;14721;42.668;23.386;2023-02-18T03:51:30;96054.06;;;2.20;72.04
27210;BME280;14721;42.668;23.386;2023-02-18T03:53:55;96058.59;;;2.15;72.09
27210;BME280;14721;42.668;23.386;2023-02-18T03:56:21;96055.81;;;1.92;73.04
27210;BME280;14721;42.668;23.386;2023-02-18T03:58:47;96057.56;;;1.91;73.45
27210;BME280;14721;42.668;23.386;2023-02-18T04:01:13;96054.09;;;1.89;73.67
27210;BME280;14721;42.668;23.386;2023-02-18T04:03:39;96049.81;;;1.87;73.80
27210;BME280;14721;42.668;23.386;2023-02-18T04:06:05;96052.25;;;1.93;74.13
27210;BME280;14721;42.668;23.386;2023-02-18T04:08:30;96043.94;;;2.07;73.70
27210;BME280;14721;42.668;23.386;2023-02-18T04:10:57;96044.16;;;2.28;73.39
27210;BME280;14721;42.668;23.386;2023-02-18T04:13:22;96040.66;;;2.28;73.02
27210;BME280;14721;42.668;23.386;2023-02-18T04:15:49;96037.78;;;2.35;72.75
27210;BME280;14721;42.668;23.386;2023-02-18T04:18:15;96029.03;;;2.33;72.92
27210;BME280;14721;42.668;23.386;2023-02-18T04:20:41;96040.31;;;2.38;72.97
27210;BME280;14721;42.668;23.386;2023-02-18T04:23:07;96034.94;;;2.41;73.43
27210;BME280;14721;42.668;23.386;2023-02-18T04:25:33;96038.00;;;2.55;73.73
27210;BME280;14721;42.668;23.386;2023-02-18T04:27:59;96019.91;;;2.45;73.16
27210;BME280;14721;42.668;23.386;2023-02-18T04:30:25;96022.63;;;2.42;73.46
27210;BME280;14721;42.668;23.386;2023-02-18T04:32:51;96011.16;;;2.43;73.26
27210;BME280;14721;42.668;23.386;2023-02-18T04:35:16;96027.22;;;2.35;73.51
27210;BME280;14721;42.668;23.386;2023-02-18T04:37:42;96011.22;;;2.41;73.67
27210;BME280;14721;42.668;23.386;2023-02-18T04:40:08;96021.13;;;2.33;74.03
27210;BME280;14721;42.668;23.386;2023-02-18T04:42:34;96024.69;;;2.32;73.81
27210;BME280;14721;42.668;23.386;2023-02-18T04:44:59;96023.75;;;2.33;73.89
27210;BME280;14721;42.668;23.386;2023-02-18T04:47:25;96026.53;;;2.29;74.29
27210;BME280;14721;42.668;23.386;2023-02-18T04:49:50;96036.06;;;2.34;74.30
27210;BME280;14721;42.668;23.386;2023-02-18T04:52:16;96022.38;;;2.49;73.64
27210;BME280;14721;42.668;23.386;2023-02-18T04:54:42;96020.72;;;2.45;73.50
27210;BME280;14721;42.668;23.386;2023-02-18T04:57:08;96031.56;;;2.36;74.11
27210;BME280;14721;42.668;23.386;2023-02-18T04:59:33;96037.28;;;2.50;74.03
27210;BME280;14721;42.668;23.386;2023-02-18T05:01:59;96031.91;;;2.53;73.79
27210;BME280;14721;42.668;23.386;2023-02-18T05:04:25;96030.94;;;2.30;74.48
27210;BME280;14721;42.668;23.386;2023-02-18T05:06:52;96044.38;;;2.48;73.95
27210;BME280;14721;42.668;23.386;2023-02-18T05:09:17;96048.94;;;2.43;74.15
27210;BME280;14721;42.668;23.386;2023-02-18T05:11:43;96039.28;;;2.42;74.37
27210;BME280;14721;42.668;23.386;2023-02-18T05:14:09;96033.28;;;2.39;74.60
27210;BME280;14721;42.668;23.386;2023-02-18T05:16:34;96018.50;;;2.33;74.39
27210;BME280;14721;42.668;23.386;2023-02-18T05:19:00;96021.16;;;2.32;74.15
27210;BME280;14721;42.668;23.386;2023-02-18T05:21:25;96032.69;;;2.29;74.25
27210;BME280;14721;42.668;23.386;2023-02-18T05:23:51;96028.66;;;2.45;73.82
27210;BME280;14721;42.668;23.386;2023-02-18T05:26:17;96018.91;;;2.47;73.51
27210;BME280;14721;42.668;23.386;2023-02-18T05:28:42;96010.47;;;2.64;72.97
27210;BME280;14721;42.668;23.386;2023-02-18T05:31:08;96021.72;;;2.69;73.32
27210;BME280;14721;42.668;23.386;2023-02-18T05:33:33;96038.88;;;2.82;72.37
27210;BME280;14721;42.668;23.386;2023-02-18T05:35:59;96021.41;;;2.78;72.20
27210;BME280;14721;42.668;23.386;2023-02-18T05:38:24;96031.44;;;2.93;71.97
27210;BME280;14721;42.668;23.386;2023-02-18T05:40:50;96028.50;;;3.02;71.62
27210;BME280;14721;42.668;23.386;2023-02-18T05:43:15;96036.78;;;3.17;71.16
27210;BME280;14721;42.668;23.386;2023-02-18T05:45:41;96024.84;;;3.30;70.21
27210;BME280;14721;42.668;23.386;2023-02-18T05:48:06;96028.09;;;3.14;70.62
27210;BME280;14721;42.668;23.386;2023-02-18T05:50:32;96025.19;;;3.21;71.05
27210;BME280;14721;42.668;23.386;2023-02-18T05:52:58;96032.25;;;3.45;70.65
27210;BME280;14721;42.668;23.386;2023-02-18T05:55:24;96048.03;;;3.47;69.87
27210;BME280;14721;42.668;23.386;2023-02-18T05:57:50;96045.59;;;3.41;70.07
27210;BME280;14721;42.668;23.386;2023-02-18T06:00:16;96047.97;;;3.48;70.00
27210;BME280;14721;42.668;23.386;2023-02-18T06:02:42;96044.88;;;3.37;70.67
27210;BME280;14721;42.668;23.386;2023-02-18T06:05:08;96045.13;;;3.54;69.92
27210;BME280;14721;42.668;23.386;2023-02-18T06:07:34;96049.06;;;3.67;69.46
27210;BME280;14721;42.668;23.386;2023-02-18T06:10:00;96040.75;;;3.78;68.73
27210;BME280;14721;42.668;23.386;2023-02-18T06:12:26;96036.78;;;3.89;67.85
27210;BME280;14721;42.668;23.386;2023-02-18T06:14:51;96035.03;;;4.12;67.63
27210;BME280;14721;42.668;23.386;2023-02-18T06:17:17;96048.09;;;4.39;67.25
27210;BME280;14721;42.668;23.386;2023-02-18T06:19:44;96043.13;;;4.53;66.20
27210;BME280;14721;42.668;23.386;2023-02-18T06:22:10;96024.16;;;4.64;65.81
27210;BME280;14721;42.668;23.386;2023-02-18T06:24:36;96029.34;;;4.67;65.70
27210;BME280;14721;42.668;23.386;2023-02-18T06:27:03;96017.81;;;4.68;65.64
27210;BME280;14721;42.668;23.386;2023-02-18T06:29:28;96026.44;;;4.73;65.10
27210;BME280;14721;42.668;23.386;2023-02-18T06:31:56;96031.44;;;4.80;65.27
27210;BME280;14721;42.668;23.386;2023-02-18T06:34:22;96005.41;;;4.90;65.05
27210;BME280;14721;42.668;23.386;2023-02-18T06:36:48;96015.31;;;5.06;64.98
27210;BME280;14721;42.668;23.386;2023-02-18T06:39:14;96022.47;;;5.24;64.39
27210;BME280;14721;42.668;23.386;2023-02-18T06:41:39;96015.31;;;5.46;63.29
27210;BME280;14721;42.668;23.386;2023-02-18T06:44:05;96034.88;;;5.44;63.09
27210;BME280;14721;42.668;23.386;2023-02-18T06:46:31;96027.59;;;5.49;61.43
27210;BME280;14721;42.668;23.386;2023-02-18T06:48:57;96030.84;;;5.35;62.18
27210;BME280;14721;42.668;23.386;2023-02-18T06:51:23;96013.00;;;5.59;61.70
27210;BME280;14721;42.668;23.386;2023-02-18T06:53:48;96020.41;;;5.71;61.62
27210;BME280;14721;42.668;23.386;2023-02-18T06:56:14;96027.34;;;5.73;60.78
27210;BME280;14721;42.668;23.386;2023-02-18T06:58:40;96022.13;;;5.92;61.20
27210;BME280;14721;42.668;23.386;2023-02-18T07:01:06;96026.09;;;6.02;60.91
27210;BME280;14721;42.668;23.386;2023-02-18T07:03:31;96012.34;;;6.13;61.74
27210;BME280;14721;42.668;23.386;2023-02-18T07:05:57;96031.44;;;6.21;63.09
27210;BME280;14721;42.668;23.386;2023-02-18T07:08:24;96027.34;;;6.32;62.68
27210;BME280;14721;42.668;23.386;2023-02-18T07:10:50;96021.06;;;6.70;61.26
27210;BME280;14721;42.668;23.386;2023-02-18T07:13:15;96026.22;;;7.09;59.41
27210;BME280;14721;42.668;23.386;2023-02-18T07:15:41;96020.94;;;7.26;58.05
27210;BME280;14721;42.668;23.386;2023-02-18T07:18:08;96019.47;;;7.20;58.08
27210;BME280;14721;42.668;23.386;2023-02-18T07:20:34;96003.66;;;7.34;56.77
27210;BME280;14721;42.668;23.386;2023-02-18T07:22:59;96004.78;;;7.47;56.90
27210;BME280;14721;42.668;23.386;2023-02-18T07:25:25;96010.53;;;7.55;55.40
27210;BME280;14721;42.668;23.386;2023-02-18T07:27:51;96004.91;;;7.61;55.75
27210;BME280;14721;42.668;23.386;2023-02-18T07:30:18;96008.94;;;7.86;53.27
27210;BME280;14721;42.668;23.386;2023-02-18T07:32:43;96022.09;;;7.71;52.83
27210;BME280;14721;42.668;23.386;2023-02-18T07:35:12;96029.91;;;7.92;51.87
27210;BME280;14721;42.668;23.386;2023-02-18T07:37:38;96026.44;;;7.90;51.41
27210;BME280;14721;42.668;23.386;2023-02-18T07:40:04;96023.31;;;7.99;52.27
27210;BME280;14721;42.668;23.386;2023-02-18T07:42:30;96027.94;;;7.95;52.13
27210;BME280;14721;42.668;23.386;2023-02-18T07:44:56;96020.22;;;8.06;52.02
27210;BME280;14721;42.668;23.386;2023-02-18T07:47:22;96028.38;;;8.03;51.78
27210;BME280;14721;42.668;23.386;2023-02-18T07:49:48;96019.91;;;8.12;51.48
27210;BME280;14721;42.668;23.386;2023-02-18T07:52:14;96015.13;;;8.19;51.38
27210;BME280;14721;42.668;23.386;2023-02-18T07:54:40;96031.34;;;8.31;51.07
27210;BME280;14721;42.668;23.386;2023-02-18T07:57:06;96027.25;;;8.24;51.47
27210;BME280;14721;42.668;23.386;2023-02-18T07:59:31;96016.31;;;8.13;51.50
27210;BME280;14721;42.668;23.386;2023-02-18T08:01:57;96030.88;;;8.23;51.51
27210;BME280;14721;42.668;23.386;2023-02-18T08:04:23;96025.59;;;8.70;50.94
27210;BME280;14721;42.668;23.386;2023-02-18T08:06:49;96023.00;;;9.15;50.21
27210;BME280;14721;42.668;23.386;2023-02-18T08:09:15;96013.63;;;9.53;49.50
27210;BME280;14721;42.668;23.386;2023-02-18T08:11:41;96018.13;;;10.52;47.21
27210;BME280;14721;42.668;23.386;2023-02-18T08:14:07;96013.63;;;11.48;45.37
27210;BME280;14721;42.668;23.386;2023-02-18T08:16:33;95997.25;;;12.29;42.87
27210;BME280;14721;42.668;23.386;2023-02-18T08:19:00;95984.84;;;12.77;41.43
27210;BME280;14721;42.668;23.386;2023-02-18T08:21:28;95981.81;;;12.33;41.13
27210;BME280;14721;42.668;23.386;2023-02-18T08:23:53;95986.94;;;12.36;42.25
27210;BME280;14721;42.668;23.386;2023-02-18T08:26:20;95993.56;;;12.55;42.36
27210;BME280;14721;42.668;23.386;2023-02-18T08:28:46;95995.81;;;12.61;40.52
27210;BME280;14721;42.668;23.386;2023-02-18T08:31:17;95999.06;;;12.29;40.54
27210;BME280;14721;42.668;23.386;2023-02-18T08:33:43;96004.63;;;11.88;41.30
27210;BME280;14721;42.668;23.386;2023-02-18T08:36:11;95999.22;;;11.63;41.99
27210;BME280;14721;42.668;23.386;2023-02-18T08:38:37;96000.13;;;11.50;43.08
27210;BME280;14721;42.668;23.386;2023-02-18T08:41:05;95985.97;;;11.08;42.97
27210;BME280;14721;42.668;23.386;2023-02-18T08:43:31;95977.81;;;10.83;43.42
27210;BME280;14721;42.668;23.386;2023-02-18T08:45:58;95979.78;;;10.53;44.13
27210;BME280;14721;42.668;23.386;2023-02-18T08:48:24;95989.91;;;10.62;44.37
27210;BME280;14721;42.668;23.386;2023-02-18T08:50:50;95980.22;;;10.74;44.05
27210;BME280;14721;42.668;23.386;2023-02-18T08:53:16;95995.34;;;10.61;44.23
27210;BME280;14721;42.668;23.386;2023-02-18T08:55:43;96004.63;;;10.41;44.29
27210;BME280;14721;42.668;23.386;2023-02-18T08:58:08;95998.13;;;10.45;44.48
27210;BME280;14721;42.668;23.386;2023-02-18T09:00:34;95987.41;;;10.59;43.95
27210;BME280;14721;42.668;23.386;2023-02-18T09:03:00;95985.53;;;10.33;44.35
27210;BME280;14721;42.668;23.386;2023-02-18T09:05:26;95991.75;;;10.34;45.40
27210;BME280;14721;42.668;23.386;2023-02-18T09:07:52;95992.03;;;10.29;44.48
27210;BME280;14721;42.668;23.386;2023-02-18T09:10:17;95987.22;;;10.62;45.05
27210;BME280;14721;42.668;23.386;2023-02-18T09:12:43;95989.25;;;10.85;43.92
27210;BME280;14721;42.668;23.386;2023-02-18T09:15:08;95979.94;;;10.64;44.30
27210;BME280;14721;42.668;23.386;2023-02-18T09:17:34;95990.69;;;10.91;44.04
27210;BME280;14721;42.668;23.386;2023-02-18T09:20:00;95988.75;;;10.93;44.57
27210;BME280;14721;42.668;23.386;2023-02-18T09:22:25;95992.59;;;10.89;43.46
27210;BME280;14721;42.668;23.386;2023-02-18T09:24:51;95994.22;;;10.91;43.84
27210;BME280;14721;42.668;23.386;2023-02-18T09:27:18;95997.34;;;10.98;43.66
27210;BME280;14721;42.668;23.386;2023-02-18T09:29:44;95984.66;;;11.01;43.12
27210;BME280;14721;42.668;23.386;2023-02-18T09:32:09;95975.13;;;11.36;43.48
27210;BME280;14721;42.668;23.386;2023-02-18T09:34:36;95975.59;;;11.43;43.39
27210;BME280;14721;42.668;23.386;2023-02-18T09:37:02;95965.88;;;11.55;42.23
27210;BME280;14721;42.668;23.386;2023-02-18T09:39:28;95961.53;;;11.66;42.75
27210;BME280;14721;42.668;23.386;2023-02-18T09:42:00;95959.06;;;11.76;42.07
27210;BME280;14721;42.668;23.386;2023-02-18T09:44:32;95956.53;;;11.87;42.43
27210;BME280;14721;42.668;23.386;2023-02-18T09:47:02;95962.63;;;12.01;41.06
27210;BME280;14721;42.668;23.386;2023-02-18T09:49:31;95955.78;;;11.97;41.52
27210;BME280;14721;42.668;23.386;2023-02-18T09:52:16;95956.97;;;12.18;40.75
27210;BME280;14721;42.668;23.386;2023-02-18T09:54:43;95969.94;;;12.24;40.61
27210;BME280;14721;42.668;23.386;2023-02-18T09:57:22;95968.41;;;12.33;40.32
27210;BME280;14721;42.668;23.386;2023-02-18T09:59:53;95968.22;;;12.23;40.50
27210;BME280;14721;42.668;23.386;2023-02-18T10:02:21;95961.78;;;12.13;40.83
27210;BME280;14721;42.668;23.386;2023-02-18T10:04:48;95947.84;;;12.21;40.75
27210;BME280;14721;42.668;23.386;2023-02-18T10:07:31;95954.28;;;12.31;40.33
27210;BME280;14721;42.668;23.386;2023-02-18T10:10:04;95936.06;;;12.11;40.75
27210;BME280;14721;42.668;23.386;2023-02-18T10:12:37;95941.66;;;12.20;40.59
27210;BME280;14721;42.668;23.386;2023-02-18T10:15:16;95936.13;;;12.34;39.96
27210;BME280;14721;42.668;23.386;2023-02-18T10:17:46;95932.59;;;12.46;40.55
27210;BME280;14721;42.668;23.386;2023-02-18T10:20:16;95932.72;;;12.81;40.43
27210;BME280;14721;42.668;23.386;2023-02-18T10:22:45;95937.28;;;13.04;39.39
27210;BME280;14721;42.668;23.386;2023-02-18T10:25:16;95929.44;;;13.24;38.63
27210;BME280;14721;42.668;23.386;2023-02-18T10:27:43;95929.22;;;13.27;38.63
27210;BME280;14721;42.668;23.386;2023-02-18T10:30:23;95926.06;;;13.34;38.70
27210;BME280;14721;42.668;23.386;2023-02-18T10:33:44;95923.34;;;13.57;37.98
27210;BME280;14721;42.668;23.386;2023-02-18T10:51:29;95866.03;;;14.02;37.16
27210;BME280;14721;42.668;23.386;2023-02-18T10:53:55;95867.63;;;14.16;37.08
27210;BME280;14721;42.668;23.386;2023-02-18T10:56:50;95867.91;;;14.57;36.18
27210;BME280;14721;42.668;23.386;2023-02-18T10:59:21;95873.09;;;14.80;36.24
27210;BME280;14721;42.668;23.386;2023-02-18T11:01:59;95866.19;;;15.09;35.40
27210;BME280;14721;42.668;23.386;2023-02-18T11:04:33;95852.34;;;15.35;34.79
27210;BME280;14721;42.668;23.386;2023-02-18T11:07:18;95854.91;;;15.36;34.25
27210;BME280;14721;42.668;23.386;2023-02-18T11:09:54;95852.09;;;15.49;34.50
27210;BME280;14721;42.668;23.386;2023-02-18T11:12:24;95848.13;;;15.53;34.12
27210;BME280;14721;42.668;23.386;2023-02-18T11:17:40;95838.53;;;15.80;33.16
27210;BME280;14721;42.668;23.386;2023-02-18T11:23:11;95813.97;;;16.04;32.04
27210;BME280;14721;42.668;23.386;2023-02-18T11:25:39;95810.41;;;16.03;31.95
27210;BME280;14721;42.668;23.386;2023-02-18T11:30:46;95803.25;;;16.13;31.55
27210;BME280;14721;42.668;23.386;2023-02-18T11:33:19;95796.53;;;16.08;31.15
27210;BME280;14721;42.668;23.386;2023-02-18T11:35:53;95797.75;;;15.94;30.87
27210;BME280;14721;42.668;23.386;2023-02-18T11:38:26;95793.50;;;15.92;31.10
27210;BME280;14721;42.668;23.386;2023-02-18T11:41:01;95788.38;;;15.89;30.60
27210;BME280;14721;42.668;23.386;2023-02-18T11:43:29;95780.28;;;15.89;30.54
27210;BME280;14721;42.668;23.386;2023-02-18T11:46:15;95785.69;;;15.89;30.97
27210;BME280;14721;42.668;23.386;2023-02-18T11:48:41;95787.50;;;15.79;30.98
27210;BME280;14721;42.668;23.386;2023-02-18T11:51:17;95780.50;;;15.76;31.38
27210;BME280;14721;42.668;23.386;2023-02-18T11:53:55;95776.50;;;15.71;31.09
27210;BME280;14721;42.668;23.386;2023-02-18T11:56:25;95775.34;;;15.64;31.29
27210;BME280;14721;42.668;23.386;2023-02-18T11:58:52;95772.13;;;15.70;31.35
27210;BME280;14721;42.668;23.386;2023-02-18T12:04:20;95763.66;;;15.54;31.87
27210;BME280;14721;42.668;23.386;2023-02-18T12:07:09;95746.84;;;15.41;32.63
27210;BME280;14721;42.668;23.386;2023-02-18T12:09:43;95740.47;;;15.42;32.58
27210;BME280;14721;42.668;23.386;2023-02-18T12:14:40;95732.72;;;15.48;32.77
27210;BME280;14721;42.668;23.386;2023-02-18T12:20:22;95728.44;;;15.66;32.58
27210;BME280;14721;42.668;23.386;2023-02-18T12:28:40;95715.94;;;16.05;32.84
27210;BME280;14721;42.668;23.386;2023-02-18T12:39:40;95708.66;;;16.35;32.18
27210;BME280;14721;42.668;23.386;2023-02-18T12:44:57;95698.81;;;16.15;32.82
27210;BME280;14721;42.668;23.386;2023-02-18T12:50:22;95691.63;;;16.25;32.91
27210;BME280;14721;42.668;23.386;2023-02-18T12:58:07;95689.91;;;16.34;33.10
27210;BME280;14721;42.668;23.386;2023-02-18T13:12:30;95686.56;;;16.70;32.26
27210;BME280;14721;42.668;23.386;2023-02-18T13:17:55;95683.44;;;17.03;31.24
27210;BME280;14721;42.668;23.386;2023-02-18T13:20:41;95682.00;;;17.09;30.77
27210;BME280;14721;42.668;23.386;2023-02-18T13:23:15;95672.63;;;17.03;30.99
27210;BME280;14721;42.668;23.386;2023-02-18T13:25:42;95672.88;;;17.19;30.49
27210;BME280;14721;42.668;23.386;2023-02-18T13:30:58;95679.13;;;17.29;30.67
27210;BME280;14721;42.668;23.386;2023-02-18T13:39:09;95677.75;;;17.06;31.81
27210;BME280;14721;42.668;23.386;2023-02-18T13:41:44;95674.63;;;17.01;32.00
27210;BME280;14721;42.668;23.386;2023-02-18T13:46:57;95680.47;;;16.77;32.64
27210;BME280;14721;42.668;23.386;2023-02-18T13:49:24;95688.28;;;16.71;32.75
27210;BME280;14721;42.668;23.386;2023-02-18T13:51:53;95687.13;;;16.54;33.15
27210;BME280;14721;42.668;23.386;2023-02-18T13:54:30;95682.56;;;16.45;33.14
27210;BME280;14721;42.668;23.386;2023-02-18T13:57:12;95683.44;;;16.46;33.09
27210;BME280;14721;42.668;23.386;2023-02-18T13:59:46;95672.31;;;16.30;33.29
27210;BME280;14721;42.668;23.386;2023-02-18T14:05:14;95675.84;;;16.30;33.57
27210;BME280;14721;42.668;23.386;2023-02-18T14:07:48;95674.13;;;16.20;33.57
27210;BME280;14721;42.668;23.386;2023-02-18T14:12:43;95680.91;;;16.05;33.91
27210;BME280;14721;42.668;23.386;2023-02-18T14:25:50;95680.69;;;15.78;34.32
27210;BME280;14721;42.668;23.386;2023-02-18T14:39:21;95689.13;;;15.34;34.96
27210;BME280;14721;42.668;23.386;2023-02-18T14:50:15;95686.50;;;15.23;35.55
27210;BME280;14721;42.668;23.386;2023-02-18T14:55:32;95677.56;;;15.22;35.74
27210;BME280;14721;42.668;23.386;2023-02-18T14:58:05;95668.91;;;15.19;35.88
27210;BME280;14721;42.668;23.386;2023-02-18T15:00:35;95665.47;;;15.17;36.06
27210;BME280;14721;42.668;23.386;2023-02-18T15:03:12;95670.56;;;15.10;36.19
27210;BME280;14721;42.668;23.386;2023-02-18T15:05:38;95649.38;;;14.96;36.25
27210;BME280;14721;42.668;23.386;2023-02-18T15:08:18;95663.03;;;15.04;36.17
27210;BME280;14721;42.668;23.386;2023-02-18T15:10:49;95659.66;;;14.91;36.50
27210;BME280;14721;42.668;23.386;2023-02-18T15:13:27;95665.13;;;14.80;36.94
27210;BME280;14721;42.668;23.386;2023-02-18T15:15:57;95670.75;;;14.77;36.89
27210;BME280;14721;42.668;23.386;2023-02-18T15:18:53;95670.63;;;14.78;36.92
27210;BME280;14721;42.668;23.386;2023-02-18T15:21:28;95664.44;;;14.67;37.09
27210;BME280;14721;42.668;23.386;2023-02-18T15:23:57;95652.63;;;14.58;37.47
27210;BME280;14721;42.668;23.386;2023-02-18T15:26:24;95655.59;;;14.55;37.50
27210;BME280;14721;42.668;23.386;2023-02-18T15:29:02;95658.13;;;14.36;37.77
27210;BME280;14721;42.668;23.386;2023-02-18T15:31:33;95657.13;;;14.37;37.72
27210;BME280;14721;42.668;23.386;2023-02-18T15:34:00;95653.97;;;14.32;37.74
27210;BME280;14721;42.668;23.386;2023-02-18T15:36:25;95642.63;;;14.29;37.95
27210;BME280;14721;42.668;23.386;2023-02-18T15:38:52;95646.91;;;14.31;37.62
27210;BME280;14721;42.668;23.386;2023-02-18T15:41:19;95641.63;;;14.19;38.29
27210;BME280;14721;42.668;23.386;2023-02-18T15:44:03;95644.47;;;14.17;38.20
27210;BME280;14721;42.668;23.386;2023-02-18T15:46:30;95651.59;;;14.07;38.48
27210;BME280;14721;42.668;23.386;2023-02-18T15:48:57;95638.69;;;13.90;38.76